Time;durP1;ratioP1;P1;durP2;ratioP2;P2;SDS_P1;SDS_P2;PMS_P1;PMS_P2;Temp;Humidity;BMP_temperature;BMP_pressure;BME280_temperature;BME280_humidity;BME280_pressure;Samples;Min_cycle;Max_cycle;Signal;HPM_P1;HPM_P2
2023/09/28 00:01:56;;;;;;;11.77;10.00;;;13.60;99.90;;;;;;4970086;28;20042;-80
2023/09/28 00:04:21;;;;;;;14.57;10.93;;;13.50;99.90;;;;;;4974113;28;20113;-79
2023/09/28 00:06:50;;;;;;;14.85;10.73;;;13.50;99.90;;;;;;4952464;28;20023;-80
2023/09/28 00:09:16;;;;;;;15.00;10.77;;;13.50;99.90;;;;;;4972464;28;20088;-81
2023/09/28 00:11:42;;;;;;;13.50;10.40;;;13.50;99.90;;;;;;4954804;28;20428;-79
2023/09/28 00:14:21;;;;;;;13.52;9.63;;;13.40;99.90;;;;;;4973723;28;20026;-80
2023/09/28 00:16:47;;;;;;;14.43;11.40;;;13.40;99.90;;;;;;4976225;28;20034;-80
2023/09/28 00:19:13;;;;;;;15.30;11.88;;;13.40;99.90;;;;;;4979913;28;20038;-82
2023/09/28 00:21:39;;;;;;;13.65;10.73;;;13.40;99.90;;;;;;4972648;28;20038;-80
2023/09/28 00:24:09;;;;;;;19.95;12.32;;;13.40;99.90;;;;;;4969502;28;20038;-80
2023/09/28 00:26:37;;;;;;;16.27;11.77;;;13.30;99.90;;;;;;4953091;28;20039;-81
2023/09/28 00:29:03;;;;;;;18.25;12.85;;;13.30;99.90;;;;;;4975247;28;20058;-80
2023/09/28 00:31:29;;;;;;;19.13;13.13;;;13.20;99.90;;;;;;4966856;28;20422;-81
2023/09/28 00:33:54;;;;;;;13.88;11.35;;;13.20;99.90;;;;;;4948399;28;20046;-80
2023/09/28 00:36:20;;;;;;;16.40;11.18;;;13.20;99.90;;;;;;4956293;28;20062;-80
2023/09/28 00:38:47;;;;;;;17.27;11.43;;;13.20;99.90;;;;;;4979392;28;20073;-79
2023/09/28 00:41:13;;;;;;;17.35;11.50;;;13.20;99.90;;;;;;4960158;28;20054;-81
2023/09/28 00:43:38;;;;;;;11.57;9.85;;;13.20;99.90;;;;;;4957430;28;20037;-79
2023/09/28 00:46:05;;;;;;;13.90;11.25;;;13.20;99.90;;;;;;4962409;28;20071;-79
2023/09/28 00:48:33;;;;;;;14.45;11.05;;;13.20;99.90;;;;;;4975530;28;20022;-78
2023/09/28 00:51:00;;;;;;;13.18;10.38;;;13.20;99.90;;;;;;4974608;28;20038;-79
2023/09/28 00:53:26;;;;;;;13.75;10.30;;;13.20;99.90;;;;;;4964758;28;20030;-79
2023/09/28 00:55:53;;;;;;;13.43;10.80;;;13.20;99.90;;;;;;4973768;28;20027;-81
2023/09/28 00:58:23;;;;;;;12.52;11.15;;;13.20;99.90;;;;;;4974587;28;20500;-80
2023/09/28 01:00:49;;;;;;;12.93;10.70;;;13.20;99.90;;;;;;4951653;28;20686;-79
2023/09/28 01:03:16;;;;;;;13.45;11.27;;;13.10;99.90;;;;;;4974014;28;20070;-79
2023/09/28 01:05:43;;;;;;;15.60;10.50;;;13.10;99.90;;;;;;4976594;28;20261;-79
2023/09/28 01:08:19;;;;;;;12.40;10.75;;;13.10;99.90;;;;;;4972901;28;20031;-79
2023/09/28 01:10:47;;;;;;;14.75;11.13;;;13.00;99.90;;;;;;4983950;28;20050;-79
2023/09/28 01:13:20;;;;;;;16.15;11.05;;;13.00;99.90;;;;;;4972131;28;20350;-79
2023/09/28 01:15:48;;;;;;;13.90;10.98;;;13.00;99.90;;;;;;4944231;28;20035;-79
2023/09/28 01:18:15;;;;;;;17.83;11.52;;;12.90;99.90;;;;;;4985345;28;20031;-79
2023/09/28 01:20:43;;;;;;;14.50;11.43;;;12.90;99.90;;;;;;4974323;28;20058;-79
2023/09/28 01:23:10;;;;;;;13.85;10.75;;;12.90;99.90;;;;;;4958970;28;20090;-79
2023/09/28 01:25:37;;;;;;;16.10;10.85;;;12.90;99.90;;;;;;4980418;28;20065;-78
2023/09/28 01:28:04;;;;;;;12.18;10.43;;;12.90;99.90;;;;;;4978205;28;20035;-80
2023/09/28 01:30:30;;;;;;;13.30;9.70;;;12.90;99.90;;;;;;4971745;28;20034;-79
2023/09/28 01:32:56;;;;;;;10.20;9.05;;;12.90;99.90;;;;;;4985750;28;20031;-78
2023/09/28 01:35:23;;;;;;;9.60;8.60;;;12.90;99.90;;;;;;4975535;28;20105;-79
2023/09/28 01:37:54;;;;;;;8.82;7.93;;;12.80;99.90;;;;;;4973687;28;20030;-79
2023/09/28 01:40:20;;;;;;;8.57;7.28;;;12.80;99.90;;;;;;4963659;28;20046;-79
2023/09/28 01:42:45;;;;;;;8.57;7.22;;;12.70;99.90;;;;;;4981517;28;20034;-80
2023/09/28 01:45:12;;;;;;;37.30;7.60;;;12.70;99.90;;;;;;4960342;28;20042;-80
2023/09/28 01:47:39;;;;;;;17.80;7.97;;;12.50;99.90;;;;;;4966413;28;20035;-80
2023/09/28 01:50:05;;;;;;;13.32;9.02;;;12.50;99.90;;;;;;4958868;28;20134;-80
2023/09/28 01:52:32;;;;;;;11.85;9.95;;;12.40;99.90;;;;;;4960703;28;20102;-80
2023/09/28 01:54:58;;;;;;;14.68;10.95;;;12.40;99.90;;;;;;4968651;28;20399;-79
2023/09/28 01:57:24;;;;;;;13.63;10.80;;;12.30;99.90;;;;;;4970569;28;20029;-79
2023/09/28 01:59:50;;;;;;;11.45;10.27;;;12.40;99.90;;;;;;4957203;28;20031;-81
2023/09/28 02:02:16;;;;;;;16.67;11.32;;;12.30;99.90;;;;;;4977061;28;20472;-81
2023/09/28 02:04:42;;;;;;;13.02;10.93;;;12.30;99.90;;;;;;4974095;28;20118;-78
2023/09/28 02:07:08;;;;;;;11.40;10.15;;;12.40;99.90;;;;;;4975017;28;20031;-79
2023/09/28 02:09:34;;;;;;;12.25;10.93;;;12.40;99.90;;;;;;4977061;28;20070;-79
2023/09/28 02:12:19;;;;;;;11.05;9.95;;;12.40;99.90;;;;;;4986602;28;20186;-77
2023/09/28 02:14:45;;;;;;;9.50;8.50;;;12.40;99.90;;;;;;4964839;28;20085;-78
2023/09/28 02:17:10;;;;;;;8.48;7.57;;;12.50;99.90;;;;;;4974505;28;20523;-81
2023/09/28 02:19:38;;;;;;;9.52;7.93;;;12.50;99.90;;;;;;4982571;28;20096;-81
2023/09/28 02:22:05;;;;;;;8.18;7.20;;;12.50;99.90;;;;;;4977409;28;20061;-79
2023/09/28 02:24:32;;;;;;;9.30;8.40;;;12.50;99.90;;;;;;4979999;28;20113;-79
2023/09/28 02:26:58;;;;;;;9.15;8.15;;;12.50;99.90;;;;;;4954854;28;20038;-80
2023/09/28 02:29:23;;;;;;;11.63;9.05;;;12.50;99.90;;;;;;4964083;28;20030;-78
2023/09/28 02:31:49;;;;;;;10.10;8.35;;;12.40;99.90;;;;;;4961187;28;20067;-82
2023/09/28 02:34:15;;;;;;;12.10;9.30;;;12.40;99.90;;;;;;4961448;28;20034;-79
2023/09/28 02:36:42;;;;;;;9.95;8.88;;;12.30;99.90;;;;;;4980169;28;20026;-78
2023/09/28 02:39:08;;;;;;;11.30;9.52;;;12.30;99.90;;;;;;4978839;28;20122;-80
2023/09/28 02:41:35;;;;;;;10.10;8.85;;;12.30;99.90;;;;;;4978226;28;20069;-78
2023/09/28 02:44:01;;;;;;;11.80;8.48;;;12.20;99.90;;;;;;4959842;28;20023;-80
2023/09/28 02:46:26;;;;;;;9.82;8.57;;;12.20;99.90;;;;;;4971779;28;20102;-81
2023/09/28 02:48:52;;;;;;;10.38;9.02;;;12.20;99.90;;;;;;4974659;28;20121;-80
2023/09/28 02:51:19;;;;;;;11.05;9.10;;;12.20;99.90;;;;;;4973004;28;20698;-82
2023/09/28 02:53:45;;;;;;;10.80;9.05;;;12.20;99.90;;;;;;4974950;28;20077;-82
2023/09/28 02:56:13;;;;;;;8.13;7.32;;;12.10;99.90;;;;;;4975290;28;20459;-81
2023/09/28 02:58:39;;;;;;;7.53;6.82;;;12.10;99.90;;;;;;4964630;28;20035;-81
2023/09/28 03:01:05;;;;;;;7.93;7.03;;;12.00;99.90;;;;;;4977227;28;20483;-79
2023/09/28 03:03:30;;;;;;;8.65;7.75;;;12.00;99.90;;;;;;4978511;28;20042;-78
2023/09/28 03:05:58;;;;;;;10.30;7.40;;;12.00;99.90;;;;;;4975895;28;20114;-79
2023/09/28 03:08:24;;;;;;;7.80;7.10;;;12.00;99.90;;;;;;4962843;28;20031;-79
2023/09/28 03:10:56;;;;;;;7.95;7.18;;;12.00;99.90;;;;;;4968184;28;20030;-79
2023/09/28 03:13:22;;;;;;;7.38;6.68;;;11.90;99.90;;;;;;4947557;28;20089;-81
2023/09/28 03:15:51;;;;;;;8.27;7.47;;;11.90;99.90;;;;;;4946966;28;20038;-79
2023/09/28 03:18:17;;;;;;;7.90;7.10;;;11.90;99.90;;;;;;4942280;28;20065;-79
2023/09/28 03:20:44;;;;;;;7.68;6.97;;;11.90;99.90;;;;;;4951095;28;20030;-78
2023/09/28 03:23:14;;;;;;;7.78;7.07;;;11.90;99.90;;;;;;4955713;28;20039;-79
2023/09/28 03:25:40;;;;;;;8.52;7.60;;;11.90;99.90;;;;;;4978696;28;20038;-79
2023/09/28 03:28:06;;;;;;;8.02;7.32;;;12.00;99.90;;;;;;4962801;28;20046;-79
2023/09/28 03:30:32;;;;;;;8.77;7.90;;;12.00;99.90;;;;;;4951355;28;20794;-78
2023/09/28 03:32:59;;;;;;;8.25;7.43;;;12.00;99.90;;;;;;4979268;28;20037;-79
2023/09/28 03:35:26;;;;;;;9.55;8.10;;;12.00;99.90;;;;;;4955507;28;20545;-79
2023/09/28 03:37:54;;;;;;;9.13;8.23;;;11.90;99.90;;;;;;4978127;28;20048;-79
2023/09/28 03:40:20;;;;;;;9.70;8.63;;;11.90;99.90;;;;;;4981015;28;20058;-79
2023/09/28 03:42:50;;;;;;;10.40;8.65;;;11.90;99.90;;;;;;4970198;28;20031;-81
2023/09/28 03:45:21;;;;;;;11.82;8.77;;;11.90;99.90;;;;;;4968705;28;20055;-80
2023/09/28 03:47:50;;;;;;;20.73;10.15;;;11.80;99.90;;;;;;4977406;28;20038;-79
2023/09/28 03:50:16;;;;;;;10.88;9.10;;;11.80;99.90;;;;;;4978609;28;20042;-79
2023/09/28 03:52:43;;;;;;;17.70;9.85;;;11.70;99.90;;;;;;4975348;28;20035;-80
2023/09/28 03:55:27;;;;;;;9.48;8.48;;;11.60;99.90;;;;;;4960040;28;20113;-79
2023/09/28 03:57:53;;;;;;;14.10;9.18;;;11.60;99.90;;;;;;4978736;28;20106;-79
2023/09/28 04:00:20;;;;;;;11.63;9.70;;;11.60;99.90;;;;;;4976354;28;20109;-79
2023/09/28 04:02:48;;;;;;;13.00;10.27;;;11.60;99.90;;;;;;4980660;28;20025;-79
2023/09/28 04:05:14;;;;;;;11.77;9.43;;;11.50;99.90;;;;;;4976688;28;20035;-78
2023/09/28 04:07:41;;;;;;;13.10;10.10;;;11.60;99.90;;;;;;4979544;28;20038;-79
2023/09/28 04:10:08;;;;;;;13.70;9.07;;;11.60;99.90;;;;;;4975833;28;20039;-77
2023/09/28 04:12:34;;;;;;;14.07;11.23;;;11.50;99.90;;;;;;4979685;28;20418;-79
2023/09/28 04:15:00;;;;;;;12.82;10.27;;;11.50;99.90;;;;;;4979865;28;20074;-77
2023/09/28 04:17:26;;;;;;;13.68;10.60;;;11.50;99.90;;;;;;4977998;28;20034;-80
2023/09/28 04:19:55;;;;;;;12.70;10.43;;;11.50;99.90;;;;;;4974991;28;20122;-80
2023/09/28 04:22:21;;;;;;;10.90;9.30;;;11.50;99.90;;;;;;4985824;28;20041;-78
2023/09/28 04:24:46;;;;;;;12.63;9.85;;;11.50;99.90;;;;;;4986330;28;20491;-78
2023/09/28 04:27:12;;;;;;;11.52;9.15;;;11.40;99.90;;;;;;4974969;28;20073;-78
2023/09/28 04:29:38;;;;;;;11.80;9.85;;;11.30;99.90;;;;;;4979900;28;20081;-78
2023/09/28 04:32:04;;;;;;;12.15;9.15;;;11.30;99.90;;;;;;4977663;28;20030;-78
2023/09/28 04:34:30;;;;;;;11.90;9.50;;;11.30;99.90;;;;;;4981840;28;20388;-78
2023/09/28 04:36:57;;;;;;;11.27;9.20;;;11.30;99.90;;;;;;4980681;28;20149;-78
2023/09/28 04:39:24;;;;;;;12.55;10.10;;;11.40;99.90;;;;;;4961320;28;20373;-78
2023/09/28 04:41:54;;;;;;;13.80;10.95;;;11.40;99.90;;;;;;4974752;28;20037;-80
2023/09/28 04:44:20;;;;;;;9.75;8.65;;;11.40;99.90;;;;;;4973479;28;20551;-79
2023/09/28 04:46:50;;;;;;;12.32;9.32;;;11.40;99.90;;;;;;4971517;28;20463;-79
2023/09/28 04:49:20;;;;;;;10.57;8.90;;;11.40;99.90;;;;;;4973809;28;20491;-81
2023/09/28 04:51:46;;;;;;;9.98;8.90;;;11.50;99.90;;;;;;4972483;28;20050;-79
2023/09/28 04:54:12;;;;;;;9.55;8.48;;;11.50;99.90;;;;;;4979222;28;20027;-78
2023/09/28 04:56:38;;;;;;;9.15;7.93;;;11.40;99.90;;;;;;4972442;28;20034;-79
2023/09/28 04:59:03;;;;;;;9.57;8.40;;;11.40;99.90;;;;;;4970983;28;20027;-78
2023/09/28 05:01:30;;;;;;;9.48;8.10;;;11.40;99.90;;;;;;4976131;28;20031;-78
2023/09/28 05:03:57;;;;;;;8.10;7.30;;;11.40;99.90;;;;;;4971280;28;20058;-78
2023/09/28 05:06:22;;;;;;;8.55;7.65;;;11.40;99.90;;;;;;4974561;28;20696;-79
2023/09/28 05:08:49;;;;;;;9.68;8.38;;;11.40;99.90;;;;;;4977017;28;20022;-79
2023/09/28 05:11:15;;;;;;;19.20;9.88;;;11.30;99.90;;;;;;4971106;28;20039;-78
2023/09/28 05:13:42;;;;;;;13.63;9.95;;;11.30;99.90;;;;;;4957893;28;20535;-77
2023/09/28 05:16:08;;;;;;;12.07;10.27;;;11.30;99.90;;;;;;4971769;28;20050;-79
2023/09/28 05:18:35;;;;;;;11.07;9.27;;;11.30;99.90;;;;;;4974763;28;20062;-79
2023/09/28 05:21:01;;;;;;;11.23;9.38;;;11.30;99.90;;;;;;4972391;28;20515;-80
2023/09/28 05:23:30;;;;;;;11.00;9.48;;;11.30;99.90;;;;;;4948249;28;20033;-81
2023/09/28 05:26:01;;;;;;;11.45;8.65;;;11.30;99.90;;;;;;4967370;28;20046;-80
2023/09/28 05:28:27;;;;;;;11.85;9.10;;;11.30;99.90;;;;;;4975768;28;20097;-78
2023/09/28 05:30:53;;;;;;;12.18;10.13;;;11.30;99.90;;;;;;4973571;28;20034;-78
2023/09/28 05:33:18;;;;;;;11.75;9.68;;;11.40;99.90;;;;;;4974875;28;20039;-79
2023/09/28 05:35:46;;;;;;;9.25;7.00;;;11.40;99.90;;;;;;4975585;28;20115;-78
2023/09/28 05:38:11;;;;;;;7.10;6.40;;;11.50;99.90;;;;;;4968003;28;20035;-80
2023/09/28 05:40:37;;;;;;;7.63;6.85;;;11.50;99.90;;;;;;4966007;28;20133;-79
2023/09/28 05:43:04;;;;;;;7.82;6.53;;;11.50;99.90;;;;;;4972608;28;20089;-79
2023/09/28 05:45:32;;;;;;;7.90;7.10;;;11.50;99.90;;;;;;4984188;28;20030;-79
2023/09/28 05:47:57;;;;;;;8.20;7.10;;;11.50;99.90;;;;;;4958177;28;20034;-80
2023/09/28 05:50:23;;;;;;;8.98;7.00;;;11.60;99.90;;;;;;4986432;28;20056;-78
2023/09/28 05:52:52;;;;;;;11.80;8.27;;;11.60;99.90;;;;;;4966044;28;20054;-78
2023/09/28 05:55:22;;;;;;;12.52;10.23;;;11.60;99.90;;;;;;4948971;28;20035;-79
2023/09/28 05:57:47;;;;;;;14.35;9.98;;;11.60;99.90;;;;;;4979355;28;20038;-81
2023/09/28 06:00:15;;;;;;;14.00;11.32;;;11.60;99.90;;;;;;4961731;28;20033;-80
2023/09/28 06:02:41;;;;;;;16.40;12.25;;;11.60;99.90;;;;;;4976538;28;20051;-80
2023/09/28 06:05:09;;;;;;;16.35;12.13;;;11.60;99.90;;;;;;4981355;28;20035;-79
2023/09/28 06:07:35;;;;;;;19.00;12.95;;;11.70;99.90;;;;;;4988813;28;20026;-81
2023/09/28 06:10:02;;;;;;;18.23;13.68;;;11.80;99.90;;;;;;4987981;28;20033;-78
2023/09/28 06:12:28;;;;;;;14.80;11.38;;;11.90;99.90;;;;;;4985118;28;20018;-78
2023/09/28 06:14:54;;;;;;;23.85;13.35;;;12.00;99.90;;;;;;4977195;28;20026;-78
2023/09/28 06:17:20;;;;;;;19.40;12.98;;;12.20;99.90;;;;;;4980293;28;20033;-80
2023/09/28 06:20:05;;;;;;;18.67;12.02;;;12.40;99.90;;;;;;4974614;28;20710;-80
2023/09/28 06:22:31;;;;;;;22.40;14.18;;;12.50;99.90;;;;;;4958576;28;20069;-80
2023/09/28 06:24:56;;;;;;;19.85;14.23;;;12.60;99.90;;;;;;4961808;28;20371;-81
2023/09/28 06:27:25;;;;;;;26.23;17.15;;;12.60;99.90;;;;;;4979228;28;20101;-80
2023/09/28 06:29:53;;;;;;;26.25;18.08;;;12.70;99.90;;;;;;4978722;28;20031;-79
2023/09/28 06:32:21;;;;;;;23.45;16.08;;;12.70;99.90;;;;;;4980555;28;20518;-78
2023/09/28 06:34:46;;;;;;;25.65;16.92;;;12.70;99.90;;;;;;4984975;28;20086;-78
2023/09/28 06:37:12;;;;;;;30.13;18.80;;;12.80;99.90;;;;;;4958114;28;20117;-80
2023/09/28 06:39:38;;;;;;;16.23;10.70;;;13.00;99.90;;;;;;4980256;28;20037;-79
2023/09/28 06:42:04;;;;;;;9.35;6.50;;;13.10;99.90;;;;;;4984498;28;20046;-81
2023/09/28 06:44:30;;;;;;;16.90;12.20;;;13.30;99.90;;;;;;4968668;28;20483;-82
2023/09/28 06:46:57;;;;;;;16.30;12.90;;;13.50;99.90;;;;;;4984335;28;20042;-81
2023/09/28 06:49:23;;;;;;;20.20;13.35;;;13.50;99.90;;;;;;4981434;28;20050;-80
2023/09/28 06:51:49;;;;;;;16.48;12.52;;;13.50;99.90;;;;;;4970950;28;20049;-83
2023/09/28 06:54:16;;;;;;;17.13;13.13;;;13.50;99.90;;;;;;4980997;28;20061;-80
2023/09/28 06:56:42;;;;;;;15.63;13.13;;;13.50;99.90;;;;;;4981749;28;20039;-80
2023/09/28 06:59:07;;;;;;;16.73;13.32;;;13.50;99.90;;;;;;4972134;28;20027;-80
2023/09/28 07:01:35;;;;;;;17.83;14.48;;;13.50;99.90;;;;;;4962546;28;20099;-81
2023/09/28 07:04:01;;;;;;;19.35;15.55;;;13.70;99.90;;;;;;4975486;28;20035;-81
2023/09/28 07:06:26;;;;;;;20.38;15.15;;;14.00;99.90;;;;;;4991155;28;20026;-79
2023/09/28 07:08:55;;;;;;;14.15;11.32;;;14.20;99.90;;;;;;4988795;28;20038;-79
2023/09/28 07:11:20;;;;;;;7.55;5.82;;;14.40;99.90;;;;;;4983538;28;20594;-79
2023/09/28 07:13:46;;;;;;;8.82;5.97;;;14.60;99.90;;;;;;4981161;28;20031;-78
2023/09/28 07:16:12;;;;;;;8.68;7.15;;;14.60;99.90;;;;;;4978001;28;20022;-80
2023/09/28 07:18:38;;;;;;;8.55;7.35;;;14.70;99.90;;;;;;4977169;28;20483;-77
2023/09/28 07:21:04;;;;;;;11.20;9.60;;;14.70;99.90;;;;;;4982524;28;20046;-79
2023/09/28 07:23:29;;;;;;;16.52;12.07;;;14.60;99.90;;;;;;4978937;28;20067;-79
2023/09/28 07:25:55;;;;;;;14.48;11.82;;;14.50;99.90;;;;;;4977740;28;20034;-78
2023/09/28 07:28:21;;;;;;;15.48;11.05;;;14.60;99.90;;;;;;4982362;28;20081;-78
2023/09/28 07:30:47;;;;;;;14.32;11.88;;;14.70;99.90;;;;;;4982488;28;20054;-78
2023/09/28 07:33:15;;;;;;;15.27;11.43;;;14.80;99.90;;;;;;4981524;28;20031;-78
2023/09/28 07:35:48;;;;;;;13.95;11.48;;;14.90;99.90;;;;;;4981694;28;20045;-78
2023/09/28 07:38:14;;;;;;;13.65;11.52;;;15.00;99.90;;;;;;4983295;28;20419;-79
2023/09/28 07:40:40;;;;;;;17.88;11.20;;;15.20;99.90;;;;;;4984843;28;20034;-77
2023/09/28 07:43:06;;;;;;;15.45;12.32;;;15.50;99.90;;;;;;4980673;28;20129;-80
2023/09/28 07:45:32;;;;;;;13.68;11.82;;;15.60;99.90;;;;;;4978171;28;20034;-80
2023/09/28 07:47:58;;;;;;;15.60;12.52;;;15.70;99.90;;;;;;4974294;28;20104;-79
2023/09/28 07:50:24;;;;;;;12.98;11.55;;;15.80;99.90;;;;;;4983103;28;20706;-80
2023/09/28 07:52:51;;;;;;;18.50;12.30;;;15.90;99.90;;;;;;4962180;28;20396;-79
2023/09/28 07:55:17;;;;;;;15.68;11.85;;;15.90;99.90;;;;;;4975306;28;20689;-79
2023/09/28 07:57:43;;;;;;;13.38;11.93;;;16.10;99.90;;;;;;4977035;28;20054;-79
2023/09/28 08:00:11;;;;;;;14.23;12.73;;;16.20;99.90;;;;;;4969769;28;20359;-79
2023/09/28 08:02:38;;;;;;;23.45;14.13;;;16.30;99.90;;;;;;4967808;28;20063;-80
2023/09/28 08:05:04;;;;;;;16.10;12.45;;;16.40;99.90;;;;;;4970753;28;20043;-80
2023/09/28 08:07:33;;;;;;;15.25;11.63;;;16.60;99.90;;;;;;4975547;28;20491;-80
2023/09/28 08:10:00;;;;;;;14.35;11.45;;;16.70;99.90;;;;;;4979496;28;20035;-80
2023/09/28 08:12:27;;;;;;;14.43;11.40;;;16.90;99.90;;;;;;4978696;28;20052;-79
2023/09/28 08:14:53;;;;;;;14.95;10.98;;;17.10;99.90;;;;;;4976989;28;20040;-79
2023/09/28 08:17:20;;;;;;;13.15;11.60;;;17.10;99.90;;;;;;4974271;28;20023;-78
2023/09/28 08:19:46;;;;;;;15.00;11.48;;;17.30;99.90;;;;;;4977324;28;20026;-80
2023/09/28 08:22:12;;;;;;;13.77;10.88;;;17.30;99.90;;;;;;4973579;28;20131;-80
2023/09/28 08:24:39;;;;;;;12.60;10.68;;;17.40;99.90;;;;;;4970909;28;20054;-79
2023/09/28 08:27:04;;;;;;;13.77;10.75;;;17.40;99.90;;;;;;4973489;28;21361;-79
2023/09/28 08:29:31;;;;;;;11.20;10.00;;;17.50;99.90;;;;;;4972759;28;20041;-78
2023/09/28 08:31:57;;;;;;;13.68;9.93;;;17.60;99.90;;;;;;4977045;28;20038;-79
2023/09/28 08:34:23;;;;;;;11.63;9.80;;;17.70;99.90;;;;;;4965667;28;20041;-80
2023/09/28 08:36:50;;;;;;;11.85;10.02;;;17.70;99.90;;;;;;4974088;28;20049;-79
2023/09/28 08:39:16;;;;;;;11.10;9.98;;;17.80;99.90;;;;;;4967727;28;20545;-81
2023/09/28 08:41:44;;;;;;;11.65;10.43;;;17.80;99.90;;;;;;4953453;28;20388;-80
2023/09/28 08:44:11;;;;;;;12.48;10.73;;;17.90;99.90;;;;;;4966394;28;20049;-79
2023/09/28 08:46:40;;;;;;;12.02;10.77;;;17.90;99.90;;;;;;4970155;28;20022;-78
2023/09/28 08:49:11;;;;;;;14.48;11.68;;;18.00;99.90;;;;;;4974202;28;20030;-80
2023/09/28 08:51:38;;;;;;;13.90;11.43;;;18.00;99.90;;;;;;4968224;28;20024;-80
2023/09/28 08:54:05;;;;;;;15.07;11.40;;;18.00;99.90;;;;;;4973982;28;20058;-79
2023/09/28 08:56:42;;;;;;;12.50;10.50;;;18.10;99.90;;;;;;4967786;28;20053;-79
2023/09/28 08:59:09;;;;;;;13.82;11.88;;;18.10;99.90;;;;;;4961491;28;20045;-81
2023/09/28 09:01:36;;;;;;;12.23;10.75;;;18.20;99.90;;;;;;4964839;28;20038;-81
2023/09/28 09:04:03;;;;;;;14.10;12.15;;;18.20;99.90;;;;;;4965086;28;20178;-78
2023/09/28 09:06:30;;;;;;;12.30;10.88;;;18.40;99.90;;;;;;4967351;28;20392;-79
2023/09/28 09:09:06;;;;;;;15.35;11.40;;;18.40;99.90;;;;;;4958868;28;20054;-80
2023/09/28 09:11:37;;;;;;;15.52;12.00;;;18.60;99.90;;;;;;4948208;28;20122;-79
2023/09/28 09:14:02;;;;;;;12.70;10.77;;;18.60;99.90;;;;;;4954919;28;20655;-79
2023/09/28 09:16:30;;;;;;;12.75;11.35;;;18.60;99.90;;;;;;4970825;28;20055;-79
2023/09/28 09:18:56;;;;;;;13.05;9.55;;;18.80;99.90;;;;;;4978447;28;20107;-78
2023/09/28 09:21:22;;;;;;;18.35;13.23;;;18.90;99.90;;;;;;4967363;28;20026;-78
2023/09/28 09:24:05;;;;;;;12.32;10.05;;;18.90;99.90;;;;;;4971658;28;20121;-79
2023/09/28 09:26:48;;;;;;;16.35;12.95;;;19.00;99.90;;;;;;4973369;28;20038;-78
2023/09/28 09:29:15;;;;;;;13.60;10.82;;;19.00;99.90;;;;;;4968673;28;20093;-80
2023/09/28 09:31:46;;;;;;;15.57;11.10;;;19.10;99.90;;;;;;4964623;28;20035;-80
2023/09/28 09:34:19;;;;;;;14.13;10.90;;;19.10;99.90;;;;;;4951912;28;20038;-80
2023/09/28 09:36:55;;;;;;;12.52;10.95;;;19.20;99.90;;;;;;4968907;28;20031;-82
2023/09/28 09:39:24;;;;;;;12.30;10.27;;;19.20;99.90;;;;;;4973742;28;20027;-81
2023/09/28 09:41:50;;;;;;;13.90;11.13;;;19.40;99.90;;;;;;4964751;28;20027;-80
2023/09/28 09:44:17;;;;;;;12.43;9.95;;;19.60;99.90;;;;;;4963345;28;20087;-79
2023/09/28 09:46:45;;;;;;;11.77;10.10;;;19.70;99.90;;;;;;4969210;28;20050;-81
2023/09/28 09:49:12;;;;;;;12.77;10.93;;;19.70;99.90;;;;;;4966701;28;20443;-80
2023/09/28 09:51:39;;;;;;;13.10;10.30;;;19.80;99.90;;;;;;4966857;28;20043;-81
2023/09/28 09:54:08;;;;;;;10.63;9.43;;;19.80;99.90;;;;;;4973705;28;20066;-81
2023/09/28 09:56:35;;;;;;;10.55;9.25;;;19.90;99.90;;;;;;4968492;28;20438;-81
2023/09/28 09:59:05;;;;;;;12.07;8.88;;;20.00;99.90;;;;;;4971092;28;20081;-80
2023/09/28 10:01:34;;;;;;;10.05;8.80;;;20.00;99.90;;;;;;4967206;28;20031;-79
2023/09/28 10:04:04;;;;;;;12.20;8.68;;;20.10;99.90;;;;;;4966056;28;20042;-80
2023/09/28 10:06:31;;;;;;;10.63;8.35;;;20.20;99.90;;;;;;4969739;28;20026;-80
2023/09/28 10:08:57;;;;;;;11.30;8.85;;;20.20;99.90;;;;;;4970009;28;20034;-79
2023/09/28 10:11:24;;;;;;;10.52;8.55;;;20.30;99.90;;;;;;4961885;28;20470;-79
2023/09/28 10:13:50;;;;;;;8.77;7.47;;;20.40;99.90;;;;;;4964034;28;20448;-79
2023/09/28 10:16:17;;;;;;;11.80;9.27;;;20.40;99.90;;;;;;4967029;28;20023;-80
2023/09/28 10:18:47;;;;;;;11.70;7.55;;;20.50;99.90;;;;;;4969680;28;20019;-79
2023/09/28 10:21:16;;;;;;;9.43;8.27;;;20.50;99.90;;;;;;4968830;28;20113;-79
2023/09/28 10:23:42;;;;;;;11.95;8.98;;;20.40;99.90;;;;;;4973700;28;20106;-80
2023/09/28 10:26:14;;;;;;;8.20;7.38;;;20.40;99.90;;;;;;4973847;28;20712;-80
2023/09/28 10:29:06;;;;;;;8.23;6.72;;;20.40;99.90;;;;;;4972520;28;20052;-81
2023/09/28 10:31:37;;;;;;;10.00;6.63;;;20.40;99.90;;;;;;4971854;28;20041;-79
2023/09/28 10:34:07;;;;;;;7.35;6.57;;;20.60;99.90;;;;;;4979949;28;20057;-80
2023/09/28 10:36:35;;;;;;;9.07;7.25;;;20.60;99.90;;;;;;4980772;28;20035;-78
2023/09/28 10:39:14;;;;;;;8.18;6.25;;;20.70;99.90;;;;;;4980729;28;20037;-79
2023/09/28 10:41:49;;;;;;;7.35;6.57;;;20.80;99.90;;;;;;4975151;28;20853;-80
2023/09/28 10:44:19;;;;;;;9.38;6.78;;;20.80;99.90;;;;;;4973306;28;20038;-79
2023/09/28 10:46:47;;;;;;;6.57;5.97;;;20.90;99.90;;;;;;4970371;28;20090;-81
2023/09/28 10:49:24;;;;;;;6.60;5.60;;;21.00;99.90;;;;;;4965312;28;20027;-78
2023/09/28 10:51:51;;;;;;;11.48;6.45;;;21.00;99.90;;;;;;4970663;28;20114;-78
2023/09/28 10:54:17;;;;;;;6.85;6.15;;;21.10;99.90;;;;;;4971731;28;20482;-79
2023/09/28 10:56:43;;;;;;;6.03;5.43;;;21.20;99.90;;;;;;4970430;28;20039;-78
2023/09/28 10:59:11;;;;;;;7.45;5.40;;;21.20;99.90;;;;;;4967825;28;20039;-79
2023/09/28 11:01:41;;;;;;;6.15;5.55;;;21.30;99.90;;;;;;4975122;28;20558;-81
2023/09/28 11:04:07;;;;;;;6.15;5.10;;;21.40;99.90;;;;;;4968265;28;20074;-82
2023/09/28 11:06:33;;;;;;;8.75;5.75;;;21.50;99.90;;;;;;4971847;28;20455;-81
2023/09/28 11:09:03;;;;;;;6.72;5.15;;;21.60;99.90;;;;;;4971993;28;20073;-82
2023/09/28 11:11:29;;;;;;;6.40;4.90;;;21.60;99.90;;;;;;4954055;28;21414;-82
2023/09/28 11:13:57;;;;;;;5.38;4.00;;;21.60;99.90;;;;;;4955402;28;20030;-81
2023/09/28 11:16:24;;;;;;;5.75;4.70;;;21.70;99.90;;;;;;4960358;28;20023;-80
2023/09/28 11:18:51;;;;;;;5.75;5.13;;;21.80;99.90;;;;;;4974169;28;20030;-81
2023/09/28 11:21:18;;;;;;;8.32;4.85;;;22.00;99.90;;;;;;4961194;28;20062;-81
2023/09/28 11:23:43;;;;;;;6.65;4.35;;;22.10;99.90;;;;;;4969588;28;20046;-81
2023/09/28 11:26:13;;;;;;;4.95;4.03;;;22.10;99.90;;;;;;4963243;28;20039;-81
2023/09/28 11:28:39;;;;;;;4.10;3.75;;;22.20;99.90;;;;;;4967870;28;20426;-83
2023/09/28 11:31:09;;;;;;;5.63;4.35;;;22.20;99.90;;;;;;4957610;28;20089;-84
2023/09/28 11:33:36;;;;;;;5.15;3.50;;;22.20;99.90;;;;;;4969730;28;20069;-84
2023/09/28 11:36:04;;;;;;;4.15;3.45;;;22.30;99.90;;;;;;4955773;28;20143;-82
2023/09/28 11:38:30;;;;;;;4.85;3.60;;;22.50;99.90;;;;;;4973558;28;20039;-81
2023/09/28 11:40:56;;;;;;;4.57;3.35;;;22.60;99.90;;;;;;4967114;28;20038;-82
2023/09/28 11:43:22;;;;;;;3.53;3.08;;;22.80;99.90;;;;;;4960642;28;20042;-82
2023/09/28 11:45:49;;;;;;;3.58;3.28;;;23.00;99.90;;;;;;4970098;28;20042;-83
2023/09/28 11:48:22;;;;;;;3.30;3.00;;;23.10;99.90;;;;;;4961401;28;20654;-81
2023/09/28 11:50:48;;;;;;;3.67;3.28;;;23.30;99.90;;;;;;4975083;28;20045;-78
2023/09/28 11:53:17;;;;;;;3.80;3.40;;;23.40;99.90;;;;;;4960092;28;20027;-82
2023/09/28 11:55:47;;;;;;;4.40;3.80;;;23.50;99.90;;;;;;4950905;28;20033;-82
2023/09/28 11:58:20;;;;;;;4.65;3.40;;;23.70;99.90;;;;;;4970980;28;20165;-78
2023/09/28 12:00:46;;;;;;;5.88;3.30;;;23.50;99.90;;;;;;4970817;28;20626;-78
2023/09/28 12:03:13;;;;;;;5.15;3.35;;;23.50;99.90;;;;;;4961326;28;20035;-80
2023/09/28 12:05:40;;;;;;;2.90;2.70;;;23.50;99.90;;;;;;4973611;28;20039;-80
2023/09/28 12:08:07;;;;;;;3.35;2.70;;;23.50;99.90;;;;;;4951749;28;20074;-81
2023/09/28 12:10:37;;;;;;;3.83;3.05;;;23.50;99.90;;;;;;4972063;28;20045;-80
2023/09/28 12:13:04;;;;;;;3.50;3.20;;;23.50;99.90;;;;;;4956612;28;20038;-84
2023/09/28 12:15:48;;;;;;;3.95;2.78;;;23.60;99.90;;;;;;4949857;28;20105;-82
2023/09/28 12:18:14;;;;;;;3.15;2.85;;;23.60;99.90;;;;;;4952863;28;20495;-82
2023/09/28 12:20:40;;;;;;;3.50;3.20;;;23.60;99.90;;;;;;4973002;28;20073;-83
2023/09/28 12:23:06;;;;;;;3.55;2.53;;;23.70;99.90;;;;;;4967789;28;20635;-82
2023/09/28 12:25:34;;;;;;;4.20;3.10;;;23.70;99.90;;;;;;4967380;28;20026;-79
2023/09/28 12:28:00;;;;;;;4.80;2.70;;;23.80;99.90;;;;;;4950698;28;20031;-81
2023/09/28 12:30:26;;;;;;;3.60;2.85;;;23.70;98.20;;;;;;4967698;28;20034;-80
2023/09/28 12:32:53;;;;;;;4.07;3.20;;;23.70;96.90;;;;;;4965062;28;20090;-78
2023/09/28 12:35:19;;;;;;;4.80;2.97;;;23.80;99.90;;;;;;4971152;28;20950;-81
2023/09/28 12:37:45;;;;;;;3.47;2.70;;;23.80;96.00;;;;;;4975033;28;20080;-83